createdAt,value
2023-04-23T00:02:30.174Z,99752.06
2023-04-23T00:05:06.282Z,99741.44
2023-04-23T00:07:37.344Z,99731.63
2023-04-23T00:10:09.205Z,99736.13
2023-04-23T00:12:38.369Z,99734.53
2023-04-23T00:15:08.069Z,99740.41
2023-04-23T00:17:35.896Z,99736.22
2023-04-23T00:20:04.863Z,99742.91
2023-04-23T00:22:33.002Z,99742.09
2023-04-23T00:25:02.350Z,99740.50
2023-04-23T00:27:31.000Z,99750.31
2023-04-23T00:29:59.213Z,99751.13
2023-04-23T00:32:27.447Z,99745.00
2023-04-23T00:34:57.259Z,99745.00
2023-04-23T00:37:25.420Z,99748.47
2023-04-23T00:39:53.639Z,99748.22
2023-04-23T00:42:23.985Z,99745.34
2023-04-23T00:44:53.518Z,99741.63
2023-04-23T00:47:22.076Z,99739.53
2023-04-23T00:49:51.893Z,99733.16
2023-04-23T00:52:20.170Z,99729.25
2023-04-23T00:54:48.170Z,99730.59
2023-04-23T00:57:17.467Z,99723.22
2023-04-23T00:59:47.704Z,99726.78
2023-04-23T01:02:16.110Z,99728.38
2023-04-23T01:10:26.824Z,99727.69
2023-04-23T01:12:55.390Z,99714.63
2023-04-23T01:15:25.176Z,99719.13
2023-04-23T01:17:53.817Z,99727.09
2023-04-23T01:20:22.359Z,99723.44
2023-04-23T01:22:53.233Z,99725.84
2023-04-23T01:25:21.617Z,99718.66
2023-04-23T01:27:51.122Z,99723.19
2023-04-23T01:30:19.698Z,99718.13
2023-04-23T01:32:48.512Z,99718.91
2023-04-23T01:35:17.580Z,99724.00
2023-04-23T01:37:46.954Z,99732.75
2023-04-23T01:40:16.821Z,99731.50
2023-04-23T01:42:45.599Z,99723.53
2023-04-23T01:45:14.031Z,99722.47
2023-04-23T01:47:42.864Z,99722.47
2023-04-23T01:50:11.997Z,99735.28
2023-04-23T01:52:40.445Z,99728.34
2023-04-23T01:55:09.507Z,99720.94
2023-04-23T01:57:39.678Z,99719.91
2023-04-23T02:00:11.181Z,99717.78
2023-04-23T02:02:41.009Z,99714.13
2023-04-23T02:05:12.799Z,99717.06
2023-04-23T02:07:41.793Z,99712.56
2023-04-23T02:10:11.335Z,99720.06
2023-04-23T02:12:41.953Z,99714.50
2023-04-23T02:15:11.666Z,99717.16
2023-04-23T02:17:40.377Z,99711.03
2023-04-23T02:20:11.385Z,99705.50
2023-04-23T02:22:40.386Z,99710.00
2023-04-23T02:25:09.618Z,99705.50
2023-04-23T02:27:38.863Z,99699.28
2023-04-23T02:30:10.171Z,99707.09
2023-04-23T02:32:39.007Z,99708.06
2023-04-23T02:35:08.299Z,99714.75
2023-04-23T02:37:37.151Z,99712.34
2023-04-23T02:40:07.272Z,99719.72
2023-04-23T02:42:35.851Z,99713.88
2023-04-23T02:45:03.931Z,99706.94
2023-04-23T02:47:34.118Z,99709.81
2023-04-23T02:50:05.913Z,99706.84
2023-04-23T02:52:34.907Z,99712.38
2023-04-23T02:55:03.884Z,99706.53
2023-04-23T02:57:32.379Z,99705.38
2023-04-23T03:00:01.653Z,99700.31
2023-04-23T03:02:29.765Z,99712.19
2023-04-23T03:04:59.361Z,99708.97
2023-04-23T03:07:28.250Z,99709.44
2023-04-23T03:09:56.294Z,99707.28
2023-04-23T03:12:24.545Z,99706.69
2023-04-23T03:14:53.061Z,99707.19
2023-04-23T03:17:21.166Z,99707.66
2023-04-23T03:19:49.481Z,99707.09
2023-04-23T03:22:19.727Z,99708.16
2023-04-23T03:24:48.033Z,99707.56
2023-04-23T03:27:16.478Z,99709.69
2023-04-23T03:29:45.048Z,99710.72
2023-04-23T03:32:13.295Z,99707.47
2023-04-23T03:34:41.676Z,99712.78
2023-04-23T03:37:10.402Z,99712.25
2023-04-23T03:39:39.942Z,99709.59
2023-04-23T03:42:08.020Z,99710.63
2023-04-23T03:44:36.659Z,99706.34
2023-04-23T03:47:05.093Z,99703.94
2023-04-23T03:49:33.224Z,99695.41
2023-04-23T03:52:01.859Z,99698.88
2023-04-23T03:54:30.387Z,99692.97
2023-04-23T03:57:00.695Z,99688.47
2023-04-23T03:59:29.284Z,99685.50
2023-04-23T04:01:58.512Z,99688.16
2023-04-23T04:04:27.306Z,99699.00
2023-04-23T04:06:56.007Z,99701.66
2023-04-23T04:09:24.177Z,99693.13
2023-04-23T04:11:53.311Z,99698.44
2023-04-23T04:14:23.835Z,99697.63
2023-04-23T04:16:51.961Z,99698.91
2023-04-23T04:19:19.765Z,99705.50
2023-04-23T04:21:48.293Z,99707.56
2023-04-23T04:24:16.621Z,99704.34
2023-04-23T04:26:45.734Z,99701.16
2023-04-23T04:29:15.448Z,99708.53
2023-04-23T04:31:44.696Z,99699.03
2023-04-23T04:34:14.945Z,99699.03
2023-04-23T04:36:44.110Z,99708.06
2023-04-23T04:39:13.622Z,99700.34
2023-04-23T04:41:42.977Z,99710.97
2023-04-23T04:44:11.965Z,99704.00
2023-04-23T04:46:40.660Z,99706.66
2023-04-23T04:49:11.840Z,99708.06
2023-04-23T04:51:41.333Z,99703.00
2023-04-23T04:54:09.929Z,99709.09
2023-04-23T04:56:38.931Z,99709.66
2023-04-23T04:59:07.155Z,99700.09
2023-04-23T05:01:36.378Z,99703.31
2023-04-23T05:04:05.844Z,99708.16
2023-04-23T05:06:35.067Z,99700.84
2023-04-23T05:09:02.961Z,99714.72
2023-04-23T05:11:31.968Z,99706.50
2023-04-23T05:14:00.421Z,99702.31
2023-04-23T05:16:28.842Z,99696.53
2023-04-23T05:18:58.010Z,99687.28
2023-04-23T05:21:27.588Z,99693.50
2023-04-23T05:23:57.943Z,99690.13
2023-04-23T05:26:26.145Z,99684.81
2023-04-23T05:28:54.529Z,99696.06
2023-04-23T05:31:22.839Z,99699.88
2023-04-23T05:33:51.069Z,99696.75
2023-04-23T05:36:19.783Z,99695.81
2023-04-23T05:38:48.917Z,99688.97
2023-04-23T05:41:18.737Z,99688.00
2023-04-23T05:43:47.026Z,99681.97
2023-04-23T05:46:15.838Z,99684.97
2023-04-23T05:48:44.108Z,99685.03
2023-04-23T05:51:12.691Z,99683.53
2023-04-23T05:53:41.756Z,99682.53
2023-04-23T05:56:09.944Z,99687.44
2023-04-23T05:58:39.860Z,99681.16
2023-04-23T06:01:08.385Z,99689.50
2023-04-23T06:03:37.831Z,99682.41
2023-04-23T06:06:07.326Z,99685.19
2023-04-23T06:08:35.663Z,99679.47
2023-04-23T06:11:04.025Z,99690.75
2023-04-23T06:13:32.497Z,99685.56
2023-04-23T06:16:03.067Z,99688.34
2023-04-23T06:18:31.339Z,99681.00
2023-04-23T06:21:05.019Z,99685.66
2023-04-23T06:23:33.606Z,99674.78
2023-04-23T06:26:01.977Z,99665.31
2023-04-23T06:28:30.845Z,99663.81
2023-04-23T06:30:59.148Z,99667.88
2023-04-23T06:33:28.888Z,99667.97
2023-04-23T06:35:57.641Z,99668.59
2023-04-23T06:38:25.852Z,99667.88
2023-04-23T06:40:54.361Z,99667.41
2023-04-23T06:43:23.058Z,99661.63
2023-04-23T06:45:50.982Z,99668.34
2023-04-23T06:48:19.368Z,99669.72
2023-04-23T06:50:49.624Z,99664.44
2023-04-23T06:53:18.051Z,99652.53
2023-04-23T06:55:46.869Z,99649.63
2023-04-23T06:58:16.221Z,99653.94
2023-04-23T07:00:44.941Z,99650.22
2023-04-23T07:03:13.325Z,99657.75
2023-04-23T07:05:41.937Z,99650.31
2023-04-23T07:08:11.801Z,99661.03
2023-04-23T07:10:40.040Z,99653.91
2023-04-23T07:13:08.681Z,99649.91
2023-04-23T07:15:38.124Z,99634.22
2023-04-23T07:18:07.293Z,99637.44
2023-04-23T07:20:35.923Z,99631.59
2023-04-23T07:23:04.380Z,99626.00
2023-04-23T07:25:34.023Z,99622.31
2023-04-23T07:28:02.868Z,99629.81
2023-04-23T07:30:32.022Z,99621.81
2023-04-23T07:33:01.120Z,99630.91
2023-04-23T07:35:29.762Z,99620.22
2023-04-23T07:37:58.046Z,99625.06
2023-04-23T07:40:26.435Z,99622.38
2023-04-23T07:42:56.132Z,99607.94
2023-04-23T07:45:23.910Z,99619.16
2023-04-23T07:47:51.897Z,99616.25
2023-04-23T07:50:20.203Z,99613.28
2023-04-23T07:52:48.110Z,99615.44
2023-04-23T07:55:15.988Z,99614.09
2023-04-23T07:57:44.192Z,99612.19
2023-04-23T08:00:14.458Z,99612.75
2023-04-23T08:02:42.752Z,99619.13
2023-04-23T08:05:11.821Z,99615.66
2023-04-23T08:07:39.753Z,99621.78
2023-04-23T08:10:08.632Z,99618.31
2023-04-23T08:12:37.026Z,99614.56
2023-04-23T08:15:06.853Z,99601.75
2023-04-23T08:17:36.063Z,99608.44
2023-04-23T08:20:06.988Z,99611.38
2023-04-23T08:22:34.886Z,99615.66
2023-04-23T08:25:02.756Z,99608.97
2023-04-23T08:27:31.147Z,99611.63
2023-04-23T08:29:58.951Z,99592.88
2023-04-23T08:32:26.925Z,99608.63
2023-04-23T08:34:56.669Z,99603.25
2023-04-23T08:37:30.714Z,99601.94
2023-04-23T08:39:59.999Z,99613.97
2023-04-23T08:42:37.314Z,99602.47
2023-04-23T08:45:06.860Z,99601.38
2023-04-23T08:47:35.655Z,99601.38
2023-04-23T08:50:05.854Z,99604.59
2023-04-23T08:52:36.589Z,99600.28
2023-04-23T08:55:10.603Z,99601.38
2023-04-23T08:57:42.316Z,99606.19
2023-04-23T09:00:11.976Z,99597.09
2023-04-23T09:02:42.704Z,99601.94
2023-04-23T09:05:14.579Z,99597.63
2023-04-23T09:07:44.058Z,99580.53
2023-04-23T09:10:15.359Z,99587.47
2023-04-23T09:12:45.751Z,99588.53
2023-04-23T09:15:14.356Z,99589.34
2023-04-23T09:17:44.044Z,99584.75
2023-04-23T09:20:15.327Z,99574.03
2023-04-23T09:22:46.536Z,99562.81
2023-04-23T09:25:17.407Z,99566.50
2023-04-23T09:27:45.672Z,99565.44
2023-04-23T09:30:14.805Z,99570.78
2023-04-23T09:32:44.442Z,99567.25
2023-04-23T09:35:15.119Z,99557.38
2023-04-23T09:37:43.821Z,99560.81
2023-04-23T09:40:15.979Z,99553.56
2023-04-23T09:42:49.489Z,99551.38
2023-04-23T09:45:18.023Z,99548.44
2023-04-23T09:47:51.248Z,99555.16
2023-04-23T09:50:21.719Z,99548.72
2023-04-23T09:52:57.198Z,99544.41
2023-04-23T09:55:35.842Z,99529.41
2023-04-23T09:58:05.542Z,99527.78
2023-04-23T10:00:37.653Z,99524.81
2023-04-23T10:03:08.986Z,99520.81
2023-04-23T10:08:16.092Z,99528.38
2023-04-23T10:11:02.427Z,99525.72
2023-04-23T10:13:35.741Z,99521.44
2023-04-23T10:16:20.494Z,99512.63
2023-04-23T10:18:52.012Z,99513.97
2023-04-23T10:21:33.933Z,99513.69
2023-04-23T10:24:11.114Z,99513.97
2023-04-23T10:26:41.301Z,99512.91
2023-04-23T10:29:14.347Z,99508.34
2023-04-23T10:31:44.184Z,99507.56
2023-04-23T10:34:12.461Z,99501.41
2023-04-23T10:36:42.188Z,99501.19
2023-04-23T10:39:10.860Z,99498.22
2023-04-23T10:41:40.816Z,99499.00
2023-04-23T10:44:15.986Z,99494.44
2023-04-23T10:46:53.459Z,99486.09
2023-04-23T10:49:24.762Z,99475.38
2023-04-23T10:54:35.454Z,99465.72
2023-04-23T10:57:05.260Z,99461.97
2023-04-23T10:59:34.822Z,99451.00
2023-04-23T11:02:08.191Z,99445.34
2023-04-23T11:04:38.561Z,99450.38
2023-04-23T11:07:09.670Z,99434.00
2023-04-23T11:09:40.925Z,99435.00
2023-04-23T11:12:12.144Z,99434.19
2023-04-23T11:14:47.513Z,99428.78
2023-04-23T11:17:17.751Z,99421.28
2023-04-23T11:20:10.415Z,99422.66
2023-04-23T11:22:41.639Z,99409.53
2023-04-23T11:25:12.085Z,99415.66
2023-04-23T11:27:42.273Z,99409.50
2023-04-23T11:30:14.327Z,99407.09
2023-04-23T11:32:44.086Z,99409.78
2023-04-23T11:35:14.505Z,99399.06
2023-04-23T11:37:46.258Z,99399.56
2023-04-23T11:40:18.875Z,99392.63
2023-04-23T11:42:48.083Z,99383.25
2023-04-23T11:45:20.480Z,99394.75
2023-04-23T11:47:51.349Z,99380.34
2023-04-23T11:50:20.488Z,99388.94
2023-04-23T11:52:50.518Z,99390.03
2023-04-23T11:55:19.608Z,99386.91
2023-04-23T11:57:49.531Z,99399.28
2023-04-23T12:00:19.972Z,99397.97
2023-04-23T12:02:56.100Z,99407.97
2023-04-23T12:05:29.158Z,99413.16
2023-04-23T12:08:08.825Z,99409.72
2023-04-23T12:10:44.786Z,99408.19
2023-04-23T12:13:17.110Z,99411.47
2023-04-23T12:15:50.654Z,99408.03
2023-04-23T12:18:19.837Z,99397.13
2023-04-23T12:20:48.201Z,99408.94
2023-04-23T12:23:18.582Z,99397.19
2023-04-23T12:25:46.697Z,99397.75
2023-04-23T12:28:14.947Z,99391.31
2023-04-23T12:30:46.946Z,99397.19
2023-04-23T12:33:15.704Z,99383.84
2023-04-23T12:35:47.331Z,99374.25
2023-04-23T12:38:27.651Z,99384.41
2023-04-23T12:40:58.533Z,99372.66
2023-04-23T12:43:28.006Z,99378.03
2023-04-23T12:45:56.407Z,99376.41
2023-04-23T12:48:25.317Z,99369.44
2023-04-23T12:50:53.586Z,99369.75
2023-04-23T12:53:21.838Z,99362.50
2023-04-23T12:55:51.516Z,99352.63
2023-04-23T12:58:19.291Z,99342.19
2023-04-23T13:00:47.690Z,99336.84
2023-04-23T13:03:18.020Z,99334.44
2023-04-23T13:05:46.173Z,99329.91
2023-04-23T13:08:14.385Z,99329.91
2023-04-23T13:10:42.588Z,99311.75
2023-04-23T13:13:11.715Z,99318.69
2023-04-23T13:15:39.521Z,99301.06
2023-04-23T13:18:07.809Z,99301.06
2023-04-23T13:20:35.657Z,99290.38
2023-04-23T13:23:03.809Z,99293.31
2023-04-23T13:25:31.833Z,99287.19
2023-04-23T13:27:59.620Z,99285.59
2023-04-23T13:30:28.789Z,99286.09
2023-04-23T13:32:57.828Z,99263.41
2023-04-23T13:35:25.933Z,99261.78
2023-04-23T13:37:53.751Z,99253.78
2023-04-23T13:40:22.002Z,99249.50
2023-04-23T13:42:51.038Z,99248.72
2023-04-23T13:45:19.065Z,99236.44
2023-04-23T13:47:48.841Z,99239.09
2023-04-23T13:50:16.723Z,99246.31
2023-04-23T13:52:44.533Z,99232.16
2023-04-23T13:55:12.732Z,99227.06
2023-04-23T13:57:40.984Z,99220.94
2023-04-23T14:00:09.938Z,99220.13
2023-04-23T14:02:37.821Z,99211.59
2023-04-23T14:05:08.944Z,99200.13
2023-04-23T14:07:37.474Z,99191.56
2023-04-23T14:10:05.842Z,99183.03
2023-04-23T14:12:33.726Z,99176.09
2023-04-23T14:15:02.078Z,99168.09
2023-04-23T14:17:29.854Z,99150.19
2023-04-23T14:19:57.645Z,99139.19
2023-04-23T14:22:27.513Z,99135.44
2023-04-23T14:24:58.583Z,99124.50
2023-04-23T14:27:26.386Z,99114.59
2023-04-23T14:30:06.455Z,99100.41
2023-04-23T14:32:34.205Z,99107.06
2023-04-23T14:35:03.390Z,99106.50
2023-04-23T14:37:32.722Z,99090.41
2023-04-23T14:40:00.507Z,99098.66
2023-04-23T14:42:28.250Z,99097.03
2023-04-23T14:45:00.279Z,99089.53
2023-04-23T14:47:28.101Z,99073.19
2023-04-23T14:49:57.478Z,99069.16
2023-04-23T14:52:25.759Z,99077.41
2023-04-23T14:54:55.874Z,99069.94
2023-04-23T14:57:23.761Z,99065.63
2023-04-23T14:59:51.777Z,99060.28
2023-04-23T15:02:19.682Z,99052.25
2023-04-23T15:04:47.548Z,99049.59
2023-04-23T15:07:15.571Z,99052.25
2023-04-23T15:09:43.743Z,99044.25
2023-04-23T15:12:38.624Z,99042.09
2023-04-23T15:15:08.172Z,99030.63
2023-04-23T15:17:35.939Z,99017.75
2023-04-23T15:20:04.169Z,99018.53
2023-04-23T15:22:31.914Z,99010.00
2023-04-23T15:24:59.696Z,99000.91
2023-04-23T15:27:29.140Z,98998.78
2023-04-23T15:29:57.582Z,98996.13
2023-04-23T15:32:25.329Z,98983.84
2023-04-23T15:34:53.311Z,98975.81
2023-04-23T15:37:23.544Z,98972.91
2023-04-23T15:39:51.803Z,98971.31
2023-04-23T15:42:24.595Z,98980.72
2023-04-23T15:44:55.832Z,98968.41
2023-04-23T15:47:23.876Z,98966.31
2023-04-23T15:49:52.260Z,98952.44
2023-04-23T15:52:20.233Z,98952.44
2023-04-23T15:54:48.100Z,98940.16
2023-04-23T15:57:16.344Z,98949.25
2023-04-23T15:59:44.446Z,98933.78
2023-04-23T16:02:13.804Z,98936.44
2023-04-23T16:04:42.809Z,98932.19
2023-04-23T16:07:10.851Z,98920.47
2023-04-23T16:09:38.772Z,98919.41
2023-04-23T16:12:08.895Z,98915.13
2023-04-23T16:14:37.981Z,98902.06
2023-04-23T16:17:05.883Z,98901.81
2023-04-23T16:19:35.911Z,98903.19
2023-04-23T16:22:03.726Z,98897.06
2023-04-23T16:24:31.545Z,98888.50
2023-04-23T16:27:00.034Z,98896.53
2023-04-23T16:29:27.854Z,98888.81
2023-04-23T16:31:55.629Z,98881.66
2023-04-23T16:34:23.930Z,98883.28
2023-04-23T16:36:53.147Z,98913.31
2023-04-23T16:39:21.024Z,98908.09
2023-04-23T16:41:49.340Z,98894.53
2023-04-23T16:44:17.203Z,98903.44
2023-04-23T16:46:45.708Z,98885.94
2023-04-23T16:49:14.348Z,98885.25
2023-04-23T16:51:42.160Z,98877.59
2023-04-23T16:54:11.414Z,98873.38
2023-04-23T16:56:39.891Z,98885.16
2023-04-23T16:59:07.987Z,98858.22
2023-04-23T17:01:35.800Z,98869.78
2023-04-23T17:04:04.571Z,98877.81
2023-04-23T17:06:33.574Z,98876.28
2023-04-23T17:09:03.159Z,98873.13
2023-04-23T17:11:33.299Z,98874.22
2023-04-23T17:14:01.077Z,98864.44
2023-04-23T17:16:29.086Z,98862.03
2023-04-23T17:18:57.657Z,98862.34
2023-04-23T17:21:25.855Z,98864.78
2023-04-23T17:23:53.713Z,98854.69
2023-04-23T17:26:21.938Z,98844.09
2023-04-23T17:28:51.229Z,98843.31
2023-04-23T17:31:19.602Z,98826.88
2023-04-23T17:33:49.446Z,98831.66
2023-04-23T17:36:17.892Z,98830.88
2023-04-23T17:38:45.910Z,98829.03
2023-04-23T17:41:13.956Z,98820.84
2023-04-23T17:43:41.766Z,98817.13
2023-04-23T17:46:10.969Z,98817.66
2023-04-23T17:48:39.465Z,98810.75
2023-04-23T17:51:07.517Z,98815.03
2023-04-23T17:53:35.276Z,98822.72
2023-04-23T17:56:03.802Z,98804.38
2023-04-23T17:58:32.303Z,98825.41
2023-04-23T18:01:00.260Z,98837.13
2023-04-23T18:03:30.772Z,98828.63
2023-04-23T18:05:58.799Z,98833.16
2023-04-23T18:08:27.037Z,98859.72
2023-04-23T18:10:55.510Z,98856.50
2023-04-23T18:13:23.398Z,98865.50
2023-04-23T18:15:51.222Z,98881.44
2023-04-23T18:18:21.830Z,98890.97
2023-04-23T18:20:52.025Z,98893.63
2023-04-23T18:23:22.322Z,98914.53
2023-04-23T18:25:50.502Z,98921.16
2023-04-23T18:28:18.337Z,98929.91
2023-04-23T18:30:46.353Z,98932.84
2023-04-23T18:33:27.071Z,98953.19
2023-04-23T18:35:59.514Z,98958.25
2023-04-23T18:38:32.197Z,98966.16
2023-04-23T18:41:02.985Z,98976.25
2023-04-23T18:43:31.772Z,98991.13
2023-04-23T18:45:59.662Z,99008.91
2023-04-23T18:48:47.470Z,99007.63
2023-04-23T18:51:22.989Z,99022.47
2023-04-23T18:53:51.008Z,99016.06
2023-04-23T18:56:18.792Z,99024.56
2023-04-23T18:58:46.592Z,99035.47
2023-04-23T19:01:14.993Z,99031.47
2023-04-23T19:03:43.058Z,99043.69
2023-04-23T19:06:11.021Z,99035.19
2023-04-23T19:08:42.100Z,99050.38
2023-04-23T19:11:09.858Z,99060.41
2023-04-23T19:13:37.625Z,99064.13
2023-04-23T19:16:05.789Z,99070.19
2023-04-23T19:18:33.808Z,99079.00
2023-04-23T19:21:01.600Z,99083.47
2023-04-23T19:23:29.580Z,99086.69
2023-04-23T19:25:58.737Z,99097.63
2023-04-23T19:28:26.500Z,99108.28
2023-04-23T19:30:54.667Z,99105.81
2023-04-23T19:33:22.498Z,99107.97
2023-04-23T19:35:50.485Z,99111.72
2023-04-23T19:38:18.578Z,99122.06
2023-04-23T19:40:46.391Z,99117.03
2023-04-23T19:43:15.606Z,99129.25
2023-04-23T19:45:43.915Z,99135.06
2023-04-23T19:48:11.762Z,99137.47
2023-04-23T19:50:39.581Z,99137.97
2023-04-23T19:53:07.413Z,99136.66
2023-04-23T19:55:35.294Z,99140.38
2023-04-23T19:58:06.253Z,99141.97
2023-04-23T20:00:40.871Z,99142.28
2023-04-23T20:03:09.664Z,99143.88
2023-04-23T20:05:37.589Z,99143.56
2023-04-23T20:08:11.946Z,99140.97
2023-04-23T20:10:39.734Z,99156.88
2023-04-23T20:13:07.615Z,99154.00
2023-04-23T20:15:36.858Z,99152.09
2023-04-23T20:18:04.878Z,99147.28
2023-04-23T20:20:33.939Z,99153.41
2023-04-23T20:23:01.859Z,99158.47
2023-04-23T20:25:29.684Z,99161.13
2023-04-23T20:27:57.823Z,99160.25
2023-04-23T20:30:26.175Z,99165.34
2023-04-23T20:32:55.330Z,99160.03
2023-04-23T20:35:23.181Z,99171.19
2023-04-23T20:37:53.326Z,99171.13
2023-04-23T20:40:21.205Z,99179.16
2023-04-23T20:42:51.563Z,99169.84
2023-04-23T20:45:20.817Z,99181.81
2023-04-23T20:47:50.103Z,99180.75
2023-04-23T20:50:19.377Z,99186.91
2023-04-23T20:52:47.378Z,99182.81
2023-04-23T20:55:15.325Z,99189.47
2023-04-23T20:57:43.116Z,99192.94
2023-04-23T21:00:12.844Z,99188.97
2023-04-23T21:02:40.911Z,99197.25
2023-04-23T21:05:09.485Z,99195.03
2023-04-23T21:07:38.914Z,99195.81
2023-04-23T21:10:07.707Z,99195.28
2023-04-23T21:12:36.073Z,99199.50
2023-04-23T21:15:04.590Z,99201.03
2023-04-23T21:17:32.404Z,99199.97
2023-04-23T21:20:00.220Z,99198.59
2023-04-23T21:22:27.999Z,99205.75
2023-04-23T21:24:57.173Z,99213.41
2023-04-23T21:27:24.942Z,99203.28
2023-04-23T21:29:53.324Z,99211.44
2023-04-23T21:32:21.200Z,99205.88
2023-04-23T21:34:48.974Z,99208.78
2023-04-23T21:37:17.295Z,99215.47
2023-04-23T21:39:45.089Z,99203.22
2023-04-23T21:42:14.342Z,99205.88
2023-04-23T21:44:42.629Z,99207.38
2023-04-23T21:47:10.513Z,99210.09
2023-04-23T21:49:38.314Z,99207.38
2023-04-23T21:52:06.881Z,99200.44
2023-04-23T21:54:34.642Z,99205.22
2023-04-23T21:57:02.658Z,99202.56
2023-04-23T21:59:32.362Z,99212.13
2023-04-23T22:01:59.954Z,99205.94
2023-04-23T22:04:29.221Z,99202.19
2023-04-23T22:07:02.803Z,99204.53
2023-04-23T22:09:30.594Z,99205.56
2023-04-23T22:12:02.169Z,99209.53
2023-04-23T22:14:32.572Z,99209.34
2023-04-23T22:17:01.944Z,99202.69
2023-04-23T22:19:31.093Z,99205.81
2023-04-23T22:21:59.996Z,99212.66
2023-04-23T22:24:28.993Z,99208.84
2023-04-23T22:26:58.026Z,99208.03
2023-04-23T22:29:26.474Z,99213.91
2023-04-23T22:31:55.674Z,99215.50
2023-04-23T22:34:24.888Z,99217.63
2023-04-23T22:36:53.292Z,99219.16
2023-04-23T22:39:21.134Z,99209.59
2023-04-23T22:41:48.957Z,99216.00
2023-04-23T22:44:17.323Z,99227.16
2023-04-23T22:46:45.766Z,99218.97
2023-04-23T22:49:15.043Z,99218.16
2023-04-23T22:51:44.330Z,99225.13
2023-04-23T22:54:12.126Z,99223.00
2023-04-23T22:56:39.911Z,99231.50
2023-04-23T22:59:08.600Z,99232.69
2023-04-23T23:01:36.485Z,99236.47
2023-04-23T23:04:04.280Z,99231.97
2023-04-23T23:06:34.166Z,99236.72
2023-04-23T23:09:01.965Z,99233.81
2023-04-23T23:11:29.777Z,99225.56
2023-04-23T23:13:58.136Z,99229.03
2023-04-23T23:16:26.664Z,99228.50
2023-04-23T23:18:54.595Z,99228.28
2023-04-23T23:21:22.942Z,99232.53
2023-04-23T23:23:52.288Z,99237.53
2023-04-23T23:26:21.297Z,99229.31
2023-04-23T23:28:49.647Z,99235.19
2023-04-23T23:31:18.271Z,99244.44
2023-04-23T23:33:46.452Z,99232.16
2023-04-23T23:36:14.730Z,99246.22
2023-04-23T23:38:42.498Z,99242.50
2023-04-23T23:41:11.755Z,99251.53
2023-04-23T23:43:40.024Z,99245.41
2023-04-23T23:46:09.131Z,99252.03
2023-04-23T23:48:37.213Z,99248.53
2023-04-23T23:51:05.890Z,99253.63
2023-04-23T23:53:33.688Z,99252.81
2023-04-23T23:56:01.509Z,99260.53
2023-04-23T23:58:31.272Z,99257.31
